Hauptseite
METAR-TAF:

METAR-TAF

Flughäfen :

Maradi, Niger

Breite: 13-28N, Länge: 007-05E, Höhe: 372 m

Beobachtung

Neuester Wetterbericht von vor 14 Stunden und 3 Minuten, um 16:00 UTC
Wind 10 kt aus West
Temperatur 34°C
Luftfeuchtigkeit 44%
Luftdruck 1009 hPa
Sichtweite 10 km oder mehr
keine Wolken unter 1500 m und keine Kumulonimbus oder Gewitterwolken

METAR: DRRM 241600Z 28010KT CAVOK 34/20 Q1009

Zeit: 07:03 (06:03 UTC)


TAF: fehlend

Wetterbeobachtungen und Prognosen von mehr als 4000 Flughäfen (METAR und TAF Bericht).

Die verfügbaren Stationen werden durch gelbe und rote Markierungen auf der Karte dargestellt.

Führen Sie die Maus auf sie, um den Namen der Station zu sehen.

Darauf klicken, um die Beobachtung von Wetterbeobachtungen und Prognosen zu sehen.

Um die Karte zu ändern : klicken Sie auf den grünen Tasten mit einem schwarzen Kreuz Zum Vergrößern, auf den grünen Button mit einem Gedankenstrich zu verkleinern, oder auf die grünen Pfeile für benachbarte Karten.


METAR-TAF: